createdAt,value
2022-08-01T00:00:21.147Z,22.16
2022-08-01T00:01:54.414Z,22.22
2022-08-01T00:03:28.119Z,22.20
2022-08-01T00:05:02.602Z,22.10
2022-08-01T00:06:35.874Z,22.12
2022-08-01T00:08:09.140Z,22.05
2022-08-01T00:09:42.755Z,21.93
2022-08-01T00:11:15.326Z,21.93
2022-08-01T00:12:50.031Z,21.91
2022-08-01T00:14:23.301Z,21.90
2022-08-01T00:16:06.425Z,21.84
2022-08-01T00:17:39.777Z,21.78
2022-08-01T00:19:13.131Z,21.80
2022-08-01T00:20:46.442Z,21.78
2022-08-01T00:22:20.232Z,21.75
2022-08-01T00:23:53.536Z,21.72
2022-08-01T00:25:34.336Z,21.68
2022-08-01T00:27:08.054Z,21.60
2022-08-01T00:28:43.072Z,21.55
2022-08-01T00:30:16.332Z,21.53
2022-08-01T00:31:49.611Z,21.48
2022-08-01T00:33:21.875Z,21.43
2022-08-01T00:34:55.611Z,21.39
2022-08-01T00:36:28.828Z,21.34
2022-08-01T00:38:02.210Z,21.28
2022-08-01T00:39:35.490Z,21.23
2022-08-01T00:41:09.326Z,21.20
2022-08-01T00:42:43.913Z,21.14
2022-08-01T00:44:18.889Z,21.10
2022-08-01T00:45:51.167Z,21.05
2022-08-01T00:47:24.698Z,21.02
2022-08-01T00:48:59.075Z,20.96
2022-08-01T00:50:32.498Z,20.96
2022-08-01T00:52:08.528Z,20.91
2022-08-01T00:53:51.580Z,20.86
2022-08-01T00:55:26.332Z,20.81
2022-08-01T00:57:00.397Z,20.73
2022-08-01T00:58:34.621Z,20.66
2022-08-01T01:00:10.795Z,20.59
2022-08-01T01:01:46.619Z,20.55
2022-08-01T01:03:19.294Z,20.53
2022-08-01T01:04:52.647Z,20.46
2022-08-01T01:06:40.947Z,20.36
2022-08-01T01:08:20.717Z,20.25
2022-08-01T01:10:01.335Z,20.16
2022-08-01T01:11:44.748Z,20.11
2022-08-01T01:13:23.327Z,20.15
2022-08-01T01:15:03.912Z,20.16
2022-08-01T01:16:42.255Z,20.19
2022-08-01T01:18:19.702Z,20.21
2022-08-01T01:19:58.022Z,20.23
2022-08-01T01:22:09.525Z,20.23
2022-08-01T01:23:52.623Z,20.22
2022-08-01T01:25:42.135Z,20.23
2022-08-01T01:27:26.718Z,20.28
2022-08-01T01:29:06.907Z,20.27
2022-08-01T01:30:43.605Z,20.24
2022-08-01T01:32:22.046Z,20.20
2022-08-01T01:34:06.523Z,20.16
2022-08-01T01:35:44.342Z,20.15
2022-08-01T01:37:22.496Z,20.12
2022-08-01T01:38:57.333Z,20.14
2022-08-01T01:40:32.480Z,20.17
2022-08-01T01:42:07.403Z,20.19
2022-08-01T01:43:42.337Z,20.18
2022-08-01T01:45:18.261Z,20.20
2022-08-01T01:46:53.708Z,20.18
2022-08-01T01:48:29.194Z,20.16
2022-08-01T01:50:03.548Z,20.17
2022-08-01T01:51:36.932Z,20.17
2022-08-01T01:53:15.053Z,20.13
2022-08-01T01:54:52.882Z,20.04
2022-08-01T01:56:28.157Z,20.02
2022-08-01T01:58:02.622Z,19.98
2022-08-01T01:59:38.613Z,19.95
2022-08-01T02:01:15.021Z,19.95
2022-08-01T02:02:48.880Z,20.00
2022-08-01T02:04:23.206Z,20.03
2022-08-01T02:05:59.257Z,20.04
2022-08-01T02:07:34.904Z,20.04
2022-08-01T02:09:12.584Z,20.07
2022-08-01T02:11:08.226Z,20.02
2022-08-01T02:12:46.707Z,20.02
2022-08-01T02:14:22.462Z,20.04
2022-08-01T02:15:59.196Z,20.07
2022-08-01T02:17:34.888Z,20.14
2022-08-01T02:19:08.580Z,20.11
2022-08-01T02:20:41.976Z,20.08
2022-08-01T02:22:21.186Z,20.07
2022-08-01T02:23:59.821Z,20.10
2022-08-01T02:26:08.516Z,20.14
2022-08-01T02:27:42.527Z,20.23
2022-08-01T02:29:21.630Z,20.26
2022-08-01T02:30:58.873Z,20.32
2022-08-01T02:32:38.747Z,20.42
2022-08-01T02:34:15.439Z,20.47
2022-08-01T02:36:30.275Z,20.48
2022-08-01T02:37:48.764Z,20.53
2022-08-01T02:39:24.876Z,20.53
2022-08-01T02:41:02.094Z,20.54
2022-08-01T02:42:38.939Z,20.51
2022-08-01T02:44:19.176Z,20.50
2022-08-01T02:45:55.368Z,20.47
2022-08-01T02:47:31.365Z,20.37
2022-08-01T02:49:09.879Z,20.32
2022-08-01T02:50:47.303Z,20.31
2022-08-01T02:52:23.245Z,20.30
2022-08-01T02:53:58.425Z,20.29
2022-08-01T02:55:34.691Z,20.26
2022-08-01T02:57:13.927Z,20.26
2022-08-01T02:58:48.198Z,20.24
2022-08-01T03:00:24.640Z,20.16
2022-08-01T03:01:59.154Z,20.08
2022-08-01T03:03:35.228Z,19.84
2022-08-01T03:05:11.528Z,19.73
2022-08-01T03:06:45.344Z,19.61
2022-08-01T03:08:21.015Z,19.48
2022-08-01T03:09:55.032Z,19.30
2022-08-01T03:11:30.255Z,19.18
2022-08-01T03:13:05.247Z,19.02
2022-08-01T03:14:41.956Z,18.88
2022-08-01T03:16:17.367Z,18.80
2022-08-01T03:17:53.462Z,18.76
2022-08-01T03:19:29.724Z,18.63
2022-08-01T03:21:04.494Z,18.47
2022-08-01T03:22:40.538Z,18.40
2022-08-01T03:24:15.932Z,18.33
2022-08-01T03:25:57.190Z,18.33
2022-08-01T03:27:31.585Z,18.38
2022-08-01T03:29:08.477Z,18.41
2022-08-01T03:30:43.110Z,18.45
2022-08-01T03:32:17.412Z,18.43
2022-08-01T03:33:50.967Z,18.42
2022-08-01T03:35:25.728Z,18.39
2022-08-01T03:37:05.886Z,18.37
2022-08-01T03:38:41.579Z,18.34
2022-08-01T03:40:19.813Z,18.32
2022-08-01T03:42:00.513Z,18.28
2022-08-01T03:43:42.682Z,18.32
2022-08-01T03:45:28.446Z,18.33
2022-08-01T03:47:04.696Z,18.39
2022-08-01T03:48:41.663Z,18.45
2022-08-01T03:50:16.470Z,18.50
2022-08-01T03:51:51.873Z,18.54
2022-08-01T03:53:31.338Z,18.60
2022-08-01T03:55:09.279Z,18.61
2022-08-01T03:56:45.514Z,18.66
2022-08-01T03:58:19.584Z,18.68
2022-08-01T03:59:53.768Z,18.73
2022-08-01T04:01:28.209Z,18.83
2022-08-01T04:03:02.287Z,18.90
2022-08-01T04:04:35.995Z,18.93
2022-08-01T04:06:11.686Z,19.02
2022-08-01T04:07:48.749Z,19.17
2022-08-01T04:09:23.961Z,19.27
2022-08-01T04:10:57.315Z,19.35
2022-08-01T04:12:30.759Z,19.44
2022-08-01T04:14:04.516Z,19.53
2022-08-01T04:15:42.515Z,19.59
2022-08-01T04:17:16.008Z,19.60
2022-08-01T04:18:49.493Z,19.60
2022-08-01T04:20:23.311Z,19.64
2022-08-01T04:21:57.365Z,19.72
2022-08-01T04:23:34.004Z,19.67
2022-08-01T04:25:13.435Z,19.63
2022-08-01T04:26:49.830Z,19.73
2022-08-01T04:28:25.235Z,19.73
2022-08-01T04:30:01.048Z,19.85
2022-08-01T04:31:36.673Z,20.03
2022-08-01T04:33:11.937Z,20.15
2022-08-01T04:34:48.393Z,20.26
2022-08-01T04:36:24.949Z,20.29
2022-08-01T04:37:59.398Z,20.38
2022-08-01T04:39:50.446Z,20.51
2022-08-01T04:41:27.003Z,20.63
2022-08-01T04:43:00.513Z,20.85
2022-08-01T04:44:34.568Z,21.24
2022-08-01T04:46:08.866Z,21.70
2022-08-01T04:47:43.464Z,22.15
2022-08-01T04:49:17.584Z,22.39
2022-08-01T04:50:52.491Z,22.75
2022-08-01T04:52:34.479Z,23.22
2022-08-01T04:54:08.461Z,23.68
2022-08-01T04:55:41.747Z,24.12
2022-08-01T04:57:16.924Z,24.30
2022-08-01T04:59:15.567Z,24.42
2022-08-01T05:00:53.427Z,24.66
2022-08-01T05:02:29.289Z,24.81
2022-08-01T05:04:02.600Z,25.02
2022-08-01T05:05:36.556Z,25.41
2022-08-01T05:07:10.525Z,25.70
2022-08-01T05:08:43.957Z,25.68
2022-08-01T05:10:17.299Z,25.56
2022-08-01T05:11:50.891Z,25.64
2022-08-01T05:13:25.656Z,25.65
2022-08-01T05:14:59.198Z,25.61
2022-08-01T05:16:32.474Z,25.77
2022-08-01T05:18:07.748Z,25.73
2022-08-01T05:19:44.011Z,26.00
2022-08-01T05:21:17.796Z,26.05
2022-08-01T05:22:51.097Z,26.42
2022-08-01T05:24:24.560Z,26.66
2022-08-01T05:25:59.339Z,26.80
2022-08-01T05:27:32.863Z,26.85
2022-08-01T05:29:08.604Z,27.19
2022-08-01T05:30:42.342Z,27.38
2022-08-01T05:32:15.757Z,27.44
2022-08-01T05:33:49.237Z,27.35
2022-08-01T05:35:22.484Z,27.53
2022-08-01T05:36:57.844Z,27.79
2022-08-01T05:38:31.287Z,27.90
2022-08-01T05:40:05.557Z,28.16
2022-08-01T05:41:39.858Z,28.09
2022-08-01T05:43:13.138Z,28.18
2022-08-01T05:44:48.620Z,28.19
2022-08-01T05:46:22.163Z,27.85
2022-08-01T05:47:59.384Z,28.02
2022-08-01T05:49:32.873Z,28.25
2022-08-01T05:51:06.412Z,28.45
2022-08-01T05:52:40.244Z,28.66
2022-08-01T05:54:13.509Z,28.97
2022-08-01T05:55:46.910Z,29.33
2022-08-01T05:57:20.642Z,29.25
2022-08-01T05:58:54.453Z,29.16
2022-08-01T06:00:29.264Z,28.87
2022-08-01T06:02:02.767Z,28.97
2022-08-01T06:03:36.175Z,28.84
2022-08-01T06:05:13.024Z,28.84
2022-08-01T06:06:46.827Z,28.68
2022-08-01T06:08:20.536Z,28.71
2022-08-01T06:09:53.795Z,28.67
2022-08-01T06:11:27.028Z,28.68
2022-08-01T06:13:04.100Z,28.29
2022-08-01T06:14:37.462Z,28.42
2022-08-01T06:16:12.141Z,28.12
2022-08-01T06:17:45.686Z,28.31
2022-08-01T06:19:18.892Z,28.55
2022-08-01T06:20:52.740Z,28.81
2022-08-01T06:22:25.982Z,29.10
2022-08-01T06:23:59.318Z,29.03
2022-08-01T06:25:32.882Z,28.96
2022-08-01T06:27:22.192Z,28.75
2022-08-01T06:28:56.048Z,28.80
2022-08-01T06:30:29.652Z,29.02
2022-08-01T06:32:04.644Z,29.00
2022-08-01T06:33:38.514Z,28.74
2022-08-01T06:35:11.754Z,28.52
2022-08-01T06:36:44.959Z,28.48
2022-08-01T06:38:18.325Z,28.69
2022-08-01T06:39:52.271Z,29.29
2022-08-01T06:41:25.715Z,29.30
2022-08-01T06:42:59.099Z,29.12
2022-08-01T06:44:32.343Z,28.99
2022-08-01T06:46:06.798Z,29.30
2022-08-01T06:47:42.879Z,29.20
2022-08-01T06:49:16.172Z,29.50
2022-08-01T06:50:49.402Z,29.91
2022-08-01T06:52:23.149Z,30.06
2022-08-01T06:53:56.845Z,29.88
2022-08-01T06:55:30.136Z,29.74
2022-08-01T06:57:06.637Z,29.84
2022-08-01T06:58:40.382Z,29.81
2022-08-01T07:00:14.884Z,30.22
2022-08-01T07:01:48.200Z,30.02
2022-08-01T07:03:22.903Z,30.07
2022-08-01T07:04:56.361Z,29.96
2022-08-01T07:06:29.827Z,29.86
2022-08-01T07:08:03.125Z,29.52
2022-08-01T07:09:36.709Z,29.41
2022-08-01T07:11:10.254Z,29.67
2022-08-01T07:12:43.736Z,29.90
2022-08-01T07:14:17.017Z,30.17
2022-08-01T07:15:50.371Z,30.29
2022-08-01T07:17:23.611Z,30.34
2022-08-01T07:18:58.323Z,30.49
2022-08-01T07:20:36.235Z,30.33
2022-08-01T07:22:11.330Z,30.28
2022-08-01T07:23:45.962Z,30.20
2022-08-01T07:25:19.584Z,30.24
2022-08-01T07:26:55.127Z,30.21
2022-08-01T07:28:28.783Z,29.93
2022-08-01T07:30:02.144Z,30.11
2022-08-01T07:31:35.545Z,30.04
2022-08-01T07:33:09.844Z,29.87
2022-08-01T07:34:44.448Z,29.93
2022-08-01T07:36:17.866Z,29.60
2022-08-01T07:37:51.315Z,29.58
2022-08-01T07:39:24.773Z,29.62
2022-08-01T07:40:58.194Z,29.63
2022-08-01T07:42:31.505Z,29.59
2022-08-01T07:44:05.719Z,29.83
2022-08-01T07:45:39.025Z,29.96
2022-08-01T07:47:26.432Z,30.09
2022-08-01T07:48:59.813Z,30.29
2022-08-01T07:50:35.126Z,30.18
2022-08-01T07:52:08.655Z,30.23
2022-08-01T07:53:42.044Z,30.55
2022-08-01T07:55:16.163Z,30.45
2022-08-01T07:56:50.295Z,30.70
2022-08-01T07:58:23.849Z,30.51
2022-08-01T07:59:57.633Z,30.72
2022-08-01T08:01:31.427Z,30.76
2022-08-01T08:03:04.925Z,30.87
2022-08-01T08:04:37.277Z,30.76
2022-08-01T08:06:11.885Z,30.65
2022-08-01T08:07:45.242Z,30.61
2022-08-01T08:09:19.425Z,30.79
2022-08-01T08:10:52.771Z,31.15
2022-08-01T08:12:28.724Z,31.30
2022-08-01T08:14:03.417Z,31.08
2022-08-01T08:15:36.706Z,30.90
2022-08-01T08:17:10.072Z,31.05
2022-08-01T08:18:43.694Z,31.16
2022-08-01T08:20:18.098Z,31.29
2022-08-01T08:21:52.724Z,31.06
2022-08-01T08:23:51.736Z,31.15
2022-08-01T08:25:26.800Z,31.21
2022-08-01T08:27:01.919Z,30.96
2022-08-01T08:28:35.336Z,30.94
2022-08-01T08:30:09.602Z,30.37
2022-08-01T08:31:51.699Z,30.26
2022-08-01T08:33:25.843Z,30.44
2022-08-01T08:34:59.146Z,30.79
2022-08-01T08:36:32.414Z,30.97
2022-08-01T08:38:07.250Z,31.23
2022-08-01T08:39:41.994Z,31.25
2022-08-01T08:41:20.981Z,30.95
2022-08-01T08:42:55.386Z,30.77
2022-08-01T08:44:28.881Z,30.56
2022-08-01T08:46:03.394Z,30.45
2022-08-01T08:47:37.663Z,30.51
2022-08-01T08:49:12.392Z,30.72
2022-08-01T08:50:47.925Z,31.13
2022-08-01T08:52:22.783Z,31.07
2022-08-01T08:53:58.689Z,31.01
2022-08-01T08:55:32.186Z,30.89
2022-08-01T08:57:06.632Z,31.26
2022-08-01T08:58:40.419Z,31.52
2022-08-01T09:00:15.397Z,31.55
2022-08-01T09:01:49.524Z,31.40
2022-08-01T09:03:23.626Z,31.25
2022-08-01T09:04:57.132Z,31.14
2022-08-01T09:06:30.862Z,31.43
2022-08-01T09:08:04.211Z,31.33
2022-08-01T09:09:41.921Z,31.30
2022-08-01T09:11:22.481Z,31.32
2022-08-01T09:13:12.295Z,31.57
2022-08-01T09:14:51.425Z,31.80
2022-08-01T09:16:25.423Z,31.72
2022-08-01T09:17:58.627Z,31.04
2022-08-01T09:19:40.300Z,30.82
2022-08-01T09:21:17.607Z,31.06
2022-08-01T09:22:50.861Z,30.93
2022-08-01T09:24:28.426Z,31.19
2022-08-01T09:26:05.459Z,31.23
2022-08-01T09:27:44.229Z,31.25
2022-08-01T09:29:34.670Z,31.03
2022-08-01T09:31:12.990Z,31.22
2022-08-01T09:32:57.102Z,30.87
2022-08-01T09:34:34.142Z,30.76
2022-08-01T09:36:08.411Z,30.60
2022-08-01T09:37:47.464Z,30.88
2022-08-01T09:39:23.400Z,31.19
2022-08-01T09:40:58.991Z,31.63
2022-08-01T09:42:33.865Z,31.26
2022-08-01T09:44:07.184Z,30.83
2022-08-01T09:45:44.030Z,30.59
2022-08-01T09:47:23.356Z,30.43
2022-08-01T09:48:59.310Z,30.45
2022-08-01T09:50:42.924Z,30.41
2022-08-01T09:52:17.703Z,30.70
2022-08-01T09:53:53.378Z,30.38
2022-08-01T09:55:28.003Z,30.18
2022-08-01T09:57:16.689Z,30.06
2022-08-01T09:59:00.914Z,30.04
2022-08-01T10:00:45.260Z,30.18
2022-08-01T10:02:30.495Z,30.05
2022-08-01T10:04:09.617Z,29.77
2022-08-01T10:05:50.074Z,29.92
2022-08-01T10:07:27.719Z,29.77
2022-08-01T10:09:17.014Z,29.65
2022-08-01T10:11:09.601Z,29.46
2022-08-01T10:12:46.073Z,29.60
2022-08-01T10:14:25.571Z,29.44
2022-08-01T10:15:59.121Z,29.53
2022-08-01T10:17:50.199Z,29.46
2022-08-01T10:19:25.874Z,29.40
2022-08-01T10:21:08.668Z,29.46
2022-08-01T10:22:46.003Z,29.48
2022-08-01T10:24:21.224Z,29.63
2022-08-01T10:25:57.575Z,29.82
2022-08-01T10:27:39.415Z,29.95
2022-08-01T10:29:24.254Z,30.12
2022-08-01T10:31:13.239Z,29.91
2022-08-01T10:32:50.598Z,29.92
2022-08-01T10:34:25.534Z,29.78
2022-08-01T10:36:03.246Z,29.63
2022-08-01T10:37:52.122Z,29.85
2022-08-01T10:39:28.016Z,29.90
2022-08-01T10:41:06.795Z,29.79
2022-08-01T10:42:43.541Z,29.74
2022-08-01T10:44:18.216Z,29.40
2022-08-01T10:45:53.133Z,29.30
2022-08-01T10:47:50.541Z,29.49
2022-08-01T10:49:28.621Z,29.91
2022-08-01T10:51:17.768Z,29.95
2022-08-01T10:53:16.167Z,29.90
2022-08-01T10:55:04.983Z,29.93
2022-08-01T10:56:45.007Z,29.95
2022-08-01T10:58:24.118Z,29.85
2022-08-01T11:00:03.000Z,29.73
2022-08-01T11:01:37.711Z,29.77
2022-08-01T11:03:13.150Z,29.80
2022-08-01T11:04:56.305Z,30.13
2022-08-01T11:06:41.880Z,29.95
2022-08-01T11:08:24.413Z,29.73
2022-08-01T11:10:05.506Z,29.48
2022-08-01T11:12:06.225Z,29.30
2022-08-01T11:14:13.646Z,29.30
2022-08-01T11:15:50.502Z,29.51
2022-08-01T11:17:38.051Z,29.77
2022-08-01T11:19:17.639Z,30.04
2022-08-01T11:21:58.961Z,30.12
2022-08-01T11:23:18.491Z,29.99
2022-08-01T11:24:59.112Z,29.84
2022-08-01T11:26:34.570Z,29.78
2022-08-01T11:28:29.197Z,29.64
2022-08-01T11:30:27.306Z,29.58
2022-08-01T11:32:25.953Z,29.58
2022-08-01T11:34:03.404Z,29.63
2022-08-01T11:35:40.734Z,29.67
2022-08-01T11:37:30.515Z,29.86
2022-08-01T11:39:15.542Z,29.89
2022-08-01T11:40:48.920Z,30.03
2022-08-01T11:42:23.180Z,30.10
2022-08-01T11:43:59.352Z,30.09
2022-08-01T11:45:51.248Z,29.90
2022-08-01T11:47:45.853Z,29.88
2022-08-01T11:49:37.139Z,29.92
2022-08-01T11:51:23.974Z,29.93
2022-08-01T11:53:00.440Z,30.18
2022-08-01T11:54:36.289Z,30.21
2022-08-01T11:56:10.531Z,30.29
2022-08-01T11:57:44.286Z,30.21
2022-08-01T11:59:23.282Z,29.98
2022-08-01T12:00:59.227Z,29.96
2022-08-01T12:02:35.919Z,29.97
2022-08-01T12:04:09.216Z,30.19
2022-08-01T12:05:46.670Z,30.24
2022-08-01T12:07:22.589Z,30.39
2022-08-01T12:08:55.835Z,30.37
2022-08-01T12:10:33.532Z,30.15
2022-08-01T12:12:06.733Z,30.19
2022-08-01T12:13:46.067Z,30.08
2022-08-01T12:15:20.461Z,30.21
2022-08-01T12:16:54.440Z,30.37
2022-08-01T12:18:28.764Z,30.37
2022-08-01T12:20:01.126Z,30.41
2022-08-01T12:21:34.403Z,30.42
2022-08-01T12:23:11.549Z,30.44
2022-08-01T12:24:45.380Z,30.54
2022-08-01T12:26:29.205Z,30.46
2022-08-01T12:28:07.522Z,30.65
2022-08-01T12:29:44.712Z,30.67
2022-08-01T12:31:17.928Z,30.63
2022-08-01T12:32:51.938Z,30.76
2022-08-01T12:34:28.961Z,30.81
2022-08-01T12:36:03.442Z,30.93
2022-08-01T12:37:38.467Z,30.76
2022-08-01T12:39:13.876Z,30.44
2022-08-01T12:40:52.438Z,30.24
2022-08-01T12:42:27.722Z,30.15
2022-08-01T12:44:01.048Z,30.08
2022-08-01T12:45:36.932Z,30.15
2022-08-01T12:47:12.520Z,30.24
2022-08-01T12:48:46.421Z,30.17
2022-08-01T12:50:22.239Z,30.15
2022-08-01T12:51:57.710Z,30.12
2022-08-01T12:53:41.084Z,30.28
2022-08-01T12:55:19.827Z,30.44
2022-08-01T12:56:54.130Z,30.52
2022-08-01T12:58:33.561Z,30.54
2022-08-01T13:00:16.893Z,30.58
2022-08-01T13:01:50.930Z,30.63
2022-08-01T13:03:24.211Z,30.44
2022-08-01T13:04:57.551Z,30.40
2022-08-01T13:06:31.486Z,30.19
2022-08-01T13:08:12.223Z,30.17
2022-08-01T13:09:52.087Z,30.28
2022-08-01T13:11:29.373Z,30.19
2022-08-01T13:13:02.632Z,30.15
2022-08-01T13:14:36.384Z,30.18
2022-08-01T13:16:30.876Z,30.06
2022-08-01T13:18:29.128Z,30.08
2022-08-01T13:20:02.624Z,30.06
2022-08-01T13:21:54.373Z,30.16
2022-08-01T13:24:03.621Z,30.40
2022-08-01T13:25:23.928Z,30.61
2022-08-01T13:27:02.253Z,30.66
2022-08-01T13:28:37.838Z,30.75
2022-08-01T13:30:15.665Z,30.81
2022-08-01T13:31:49.343Z,30.82
2022-08-01T13:33:21.647Z,30.68
2022-08-01T13:35:03.488Z,30.58
2022-08-01T13:36:37.128Z,30.61
2022-08-01T13:38:11.022Z,30.59
2022-08-01T13:39:45.684Z,30.52
2022-08-01T13:41:18.924Z,30.49
2022-08-01T13:42:53.562Z,30.48
2022-08-01T13:44:27.140Z,30.48
2022-08-01T13:46:00.617Z,30.62
2022-08-01T13:47:34.461Z,30.74
2022-08-01T13:49:16.004Z,30.78
2022-08-01T13:51:07.369Z,30.80
2022-08-01T13:52:43.587Z,30.87
2022-08-01T13:54:16.907Z,30.92
2022-08-01T13:55:50.588Z,30.95
2022-08-01T13:57:24.323Z,30.80
2022-08-01T13:58:59.542Z,30.77
2022-08-01T14:00:33.032Z,30.81
2022-08-01T14:02:07.225Z,30.95
2022-08-01T14:03:41.076Z,31.13
2022-08-01T14:05:14.575Z,31.24
2022-08-01T14:06:47.860Z,31.21
2022-08-01T14:08:21.195Z,31.05
2022-08-01T14:10:18.460Z,31.01
2022-08-01T14:11:48.473Z,30.96
2022-08-01T14:13:23.859Z,30.97
2022-08-01T14:14:58.997Z,30.89
2022-08-01T14:16:32.282Z,30.75
2022-08-01T14:18:06.203Z,30.70
2022-08-01T14:19:42.303Z,30.66
2022-08-01T14:21:20.512Z,30.63
2022-08-01T14:22:53.696Z,30.47
2022-08-01T14:24:28.354Z,30.52
2022-08-01T14:26:07.074Z,30.56
2022-08-01T14:27:45.115Z,30.47
2022-08-01T14:29:18.361Z,30.51
2022-08-01T14:30:53.016Z,30.69
2022-08-01T14:32:28.481Z,30.68
2022-08-01T14:34:02.141Z,30.91
2022-08-01T14:36:01.574Z,31.01
2022-08-01T14:37:31.004Z,31.17
2022-08-01T14:39:07.813Z,31.22
2022-08-01T14:40:52.224Z,31.36
2022-08-01T14:42:25.601Z,31.73
2022-08-01T14:43:58.908Z,32.01
2022-08-01T14:45:32.535Z,32.04
2022-08-01T14:47:21.357Z,31.81
2022-08-01T14:48:55.491Z,31.77
2022-08-01T14:50:29.051Z,31.73
2022-08-01T14:52:02.550Z,31.48
2022-08-01T14:53:37.465Z,31.35
2022-08-01T14:55:12.118Z,31.37
2022-08-01T14:56:45.339Z,31.39
2022-08-01T14:58:22.302Z,31.36
2022-08-01T14:59:55.927Z,31.25
2022-08-01T15:01:29.330Z,30.97
2022-08-01T15:03:04.081Z,30.78
2022-08-01T15:04:37.637Z,30.77
2022-08-01T15:06:12.641Z,30.63
2022-08-01T15:07:52.458Z,30.53
2022-08-01T15:09:26.978Z,30.62
2022-08-01T15:11:02.424Z,30.56
2022-08-01T15:12:49.875Z,30.61
2022-08-01T15:14:41.210Z,30.65
2022-08-01T15:16:14.929Z,30.53
2022-08-01T15:17:48.219Z,30.45
2022-08-01T15:19:22.976Z,30.41
2022-08-01T15:20:56.289Z,30.38
2022-08-01T15:22:31.165Z,30.35
2022-08-01T15:24:04.623Z,30.31
2022-08-01T15:25:41.210Z,30.21
2022-08-01T15:27:15.275Z,30.26
2022-08-01T15:28:49.198Z,30.25
2022-08-01T15:30:23.693Z,30.22
2022-08-01T15:32:00.776Z,30.26
2022-08-01T15:33:34.121Z,30.23
2022-08-01T15:35:11.422Z,30.25
2022-08-01T15:36:45.383Z,30.22
2022-08-01T15:38:22.707Z,30.05
2022-08-01T15:39:56.568Z,29.92
2022-08-01T15:41:30.261Z,29.96
2022-08-01T15:43:03.762Z,29.95
2022-08-01T15:44:36.292Z,29.99
2022-08-01T15:46:09.625Z,30.02
2022-08-01T15:47:43.166Z,30.12
2022-08-01T15:49:16.759Z,30.17
2022-08-01T15:50:51.804Z,30.12
2022-08-01T15:52:31.797Z,30.10
2022-08-01T15:54:09.261Z,30.03
2022-08-01T15:55:52.158Z,30.03
2022-08-01T15:57:26.018Z,30.07
2022-08-01T15:59:00.039Z,30.11
2022-08-01T16:00:38.848Z,30.13
2022-08-01T16:02:14.159Z,30.14
2022-08-01T16:03:47.444Z,30.12
2022-08-01T16:05:20.786Z,30.12
2022-08-01T16:06:55.939Z,30.16
2022-08-01T16:08:29.231Z,30.20
2022-08-01T16:10:02.418Z,30.24
2022-08-01T16:11:40.928Z,30.23
2022-08-01T16:13:17.723Z,30.22
2022-08-01T16:14:51.076Z,30.23
2022-08-01T16:16:24.958Z,30.28
2022-08-01T16:17:58.534Z,30.27
2022-08-01T16:19:35.801Z,30.32
2022-08-01T16:21:11.675Z,30.29
2022-08-01T16:22:47.000Z,30.26
2022-08-01T16:24:20.410Z,30.28
2022-08-01T16:25:54.798Z,30.27
2022-08-01T16:27:30.998Z,30.26
2022-08-01T16:29:04.637Z,30.15
2022-08-01T16:30:38.033Z,30.12
2022-08-01T16:32:27.409Z,30.01
2022-08-01T16:34:11.360Z,29.92
2022-08-01T16:35:47.146Z,29.91
2022-08-01T16:37:23.586Z,29.95
2022-08-01T16:38:58.299Z,29.94
2022-08-01T16:40:31.716Z,29.89
2022-08-01T16:42:20.042Z,29.86
2022-08-01T16:43:54.708Z,29.85
2022-08-01T16:45:28.146Z,29.80
2022-08-01T16:47:01.749Z,29.76
2022-08-01T16:48:35.095Z,29.71
2022-08-01T16:50:09.777Z,29.60
2022-08-01T16:51:48.159Z,29.58
2022-08-01T16:53:22.899Z,29.59
2022-08-01T16:54:58.256Z,29.56
2022-08-01T16:56:31.600Z,29.53
2022-08-01T16:58:05.242Z,29.51
2022-08-01T16:59:40.940Z,29.44
2022-08-01T17:01:58.864Z,29.40
2022-08-01T17:03:17.795Z,29.36
2022-08-01T17:05:07.124Z,29.30
2022-08-01T17:06:44.032Z,29.26
2022-08-01T17:08:17.439Z,29.22
2022-08-01T17:09:50.692Z,29.20
2022-08-01T17:11:25.593Z,29.18
2022-08-01T17:12:58.807Z,29.17
2022-08-01T17:14:34.008Z,29.14
2022-08-01T17:16:08.823Z,29.12
2022-08-01T17:17:42.148Z,29.15
2022-08-01T17:19:15.466Z,29.16
2022-08-01T17:20:50.307Z,29.11
2022-08-01T17:22:23.592Z,29.02
2022-08-01T17:23:56.966Z,28.96
2022-08-01T17:25:30.190Z,28.85
2022-08-01T17:27:09.425Z,28.91
2022-08-01T17:28:45.663Z,28.91
2022-08-01T17:30:19.329Z,28.83
2022-08-01T17:31:52.586Z,28.80
2022-08-01T17:33:44.627Z,28.78
2022-08-01T17:35:19.965Z,28.76
2022-08-01T17:36:53.359Z,28.76
2022-08-01T17:38:26.826Z,28.77
2022-08-01T17:40:03.380Z,28.76
2022-08-01T17:41:39.932Z,28.74
2022-08-01T17:43:14.526Z,28.69
2022-08-01T17:44:49.033Z,28.65
2022-08-01T17:46:22.688Z,28.63
2022-08-01T17:47:55.878Z,28.60
2022-08-01T17:49:53.312Z,28.54
2022-08-01T17:51:23.078Z,28.53
2022-08-01T17:52:56.542Z,28.51
2022-08-01T17:54:30.504Z,28.50
2022-08-01T17:56:05.933Z,28.50
2022-08-01T17:57:39.451Z,28.48
2022-08-01T17:59:14.254Z,28.47
2022-08-01T18:00:47.652Z,28.43
2022-08-01T18:02:21.017Z,28.36
2022-08-01T18:03:54.598Z,28.35
2022-08-01T18:05:36.096Z,28.25
2022-08-01T18:07:10.714Z,28.21
2022-08-01T18:08:45.696Z,28.20
2022-08-01T18:10:20.304Z,28.18
2022-08-01T18:11:54.064Z,28.16
2022-08-01T18:13:27.320Z,28.13
2022-08-01T18:15:06.160Z,28.12
2022-08-01T18:16:40.459Z,28.04
2022-08-01T18:18:14.223Z,27.97
2022-08-01T18:19:47.435Z,28.02
2022-08-01T18:21:20.911Z,28.06
2022-08-01T18:22:54.222Z,28.02
2022-08-01T18:24:27.897Z,28.01
2022-08-01T18:26:02.512Z,28.03
2022-08-01T18:28:29.500Z,28.06
2022-08-01T18:29:47.845Z,28.04
2022-08-01T18:31:24.547Z,28.03
2022-08-01T18:32:58.057Z,27.94
2022-08-01T18:34:31.657Z,27.95
2022-08-01T18:36:06.077Z,27.94
2022-08-01T18:37:45.685Z,27.83
2022-08-01T18:39:28.030Z,27.80
2022-08-01T18:41:05.605Z,27.76
2022-08-01T18:42:38.826Z,27.70
2022-08-01T18:44:12.604Z,27.68
2022-08-01T18:45:46.049Z,27.72
2022-08-01T18:47:20.638Z,27.70
2022-08-01T18:48:54.019Z,27.68
2022-08-01T18:50:27.799Z,27.65
2022-08-01T18:52:01.211Z,27.62
2022-08-01T18:53:35.418Z,27.65
2022-08-01T18:55:09.335Z,27.60
2022-08-01T18:56:43.312Z,27.62
2022-08-01T18:58:16.615Z,27.65
2022-08-01T18:59:50.487Z,27.62
2022-08-01T19:01:24.101Z,27.63
2022-08-01T19:02:59.147Z,27.61
2022-08-01T19:04:32.783Z,27.58
2022-08-01T19:06:06.653Z,27.54
2022-08-01T19:08:05.028Z,27.52
2022-08-01T19:09:33.225Z,27.50
2022-08-01T19:11:05.605Z,27.51
2022-08-01T19:12:39.036Z,27.51
2022-08-01T19:14:12.262Z,27.46
2022-08-01T19:15:46.123Z,27.43
2022-08-01T19:17:19.979Z,27.37
2022-08-01T19:18:57.121Z,27.37
2022-08-01T19:20:31.774Z,27.33
2022-08-01T19:22:05.173Z,27.28
2022-08-01T19:24:04.740Z,27.25
2022-08-01T19:25:55.035Z,27.24
2022-08-01T19:27:32.966Z,27.21
2022-08-01T19:29:11.177Z,27.18
2022-08-01T19:30:44.685Z,27.15
2022-08-01T19:32:28.307Z,27.09
2022-08-01T19:34:06.078Z,27.05
2022-08-01T19:35:39.979Z,27.00
2022-08-01T19:37:13.880Z,27.00
2022-08-01T19:38:48.080Z,26.97
2022-08-01T19:40:26.761Z,26.99
2022-08-01T19:42:01.411Z,26.97
2022-08-01T19:43:41.448Z,26.96
2022-08-01T19:45:17.118Z,26.92
2022-08-01T19:46:51.204Z,26.89
2022-08-01T19:48:25.274Z,26.84
2022-08-01T19:49:59.888Z,26.81
2022-08-01T19:51:34.144Z,26.75
2022-08-01T19:53:09.123Z,26.71
2022-08-01T19:54:45.138Z,26.70
2022-08-01T19:56:21.292Z,26.68
2022-08-01T19:58:17.236Z,26.65
2022-08-01T19:59:48.976Z,26.60
2022-08-01T20:01:23.469Z,26.58
2022-08-01T20:02:58.015Z,26.55
2022-08-01T20:04:31.398Z,26.53
2022-08-01T20:06:07.272Z,26.48
2022-08-01T20:07:41.454Z,26.48
2022-08-01T20:09:15.182Z,26.47
2022-08-01T20:10:49.038Z,26.43
2022-08-01T20:12:23.904Z,26.42
2022-08-01T20:13:58.802Z,26.40
2022-08-01T20:15:31.217Z,26.35
2022-08-01T20:17:05.690Z,26.27
2022-08-01T20:18:41.627Z,26.30
2022-08-01T20:20:14.856Z,26.26
2022-08-01T20:22:02.588Z,26.27
2022-08-01T20:23:41.537Z,26.26
2022-08-01T20:25:15.601Z,26.23
2022-08-01T20:26:51.167Z,26.18
2022-08-01T20:28:27.971Z,26.14
2022-08-01T20:30:02.016Z,26.11
2022-08-01T20:31:44.094Z,26.11
2022-08-01T20:33:18.525Z,26.06
2022-08-01T20:34:53.447Z,26.02
2022-08-01T20:36:27.388Z,25.98
2022-08-01T20:38:07.048Z,25.99
2022-08-01T20:39:44.888Z,25.95
2022-08-01T20:41:20.475Z,25.89
2022-08-01T20:42:54.463Z,25.88
2022-08-01T20:44:32.552Z,25.87
2022-08-01T20:46:06.832Z,25.82